sensor_id;sensor_type;location;lat;lon;timestamp;temperature;humidity
38458;DHT22;24239;48.058;10.486;2023-09-30T00:00:16;16.30;99.90
38458;DHT22;24239;48.058;10.486;2023-09-30T00:03:02;16.30;99.90
38458;DHT22;24239;48.058;10.486;2023-09-30T00:05:49;16.30;99.90
38458;DHT22;24239;48.058;10.486;2023-09-30T00:08:35;16.30;99.90
38458;DHT22;24239;48.058;10.486;2023-09-30T00:11:22;16.30;99.90
38458;DHT22;24239;48.058;10.486;2023-09-30T00:14:08;16.30;99.90
38458;DHT22;24239;48.058;10.486;2023-09-30T00:16:54;16.20;99.90
38458;DHT22;24239;48.058;10.486;2023-09-30T00:19:40;16.30;99.90
38458;DHT22;24239;48.058;10.486;2023-09-30T00:22:26;16.10;99.90
38458;DHT22;24239;48.058;10.486;2023-09-30T00:25:12;16.30;99.90
38458;DHT22;24239;48.058;10.486;2023-09-30T00:27:58;16.30;99.90
38458;DHT22;24239;48.058;10.486;2023-09-30T00:30:44;16.30;99.90
38458;DHT22;24239;48.058;10.486;2023-09-30T00:33:33;16.30;99.90
38458;DHT22;24239;48.058;10.486;2023-09-30T00:36:19;16.20;99.90
38458;DHT22;24239;48.058;10.486;2023-09-30T00:39:06;16.20;99.90
38458;DHT22;24239;48.058;10.486;2023-09-30T00:41:53;16.30;99.90
38458;DHT22;24239;48.058;10.486;2023-09-30T00:44:40;16.20;99.90
38458;DHT22;24239;48.058;10.486;2023-09-30T00:47:26;16.20;99.90
38458;DHT22;24239;48.058;10.486;2023-09-30T00:50:12;16.20;99.90
38458;DHT22;24239;48.058;10.486;2023-09-30T00:52:59;16.30;99.90
38458;DHT22;24239;48.058;10.486;2023-09-30T00:55:45;16.20;99.90
38458;DHT22;24239;48.058;10.486;2023-09-30T00:58:31;16.20;99.90
38458;DHT22;24239;48.058;10.486;2023-09-30T01:01:22;16.10;99.90
38458;DHT22;24239;48.058;10.486;2023-09-30T01:04:10;16.20;99.90
38458;DHT22;24239;48.058;10.486;2023-09-30T01:06:56;16.20;99.90
38458;DHT22;24239;48.058;10.486;2023-09-30T01:09:45;16.10;99.90
38458;DHT22;24239;48.058;10.486;2023-09-30T01:12:32;16.10;99.90
38458;DHT22;24239;48.058;10.486;2023-09-30T01:15:18;16.10;99.90
38458;DHT22;24239;48.058;10.486;2023-09-30T01:18:04;16.10;99.90
38458;DHT22;24239;48.058;10.486;2023-09-30T01:20:51;16.10;99.90
38458;DHT22;24239;48.058;10.486;2023-09-30T01:23:38;16.00;99.90
38458;DHT22;24239;48.058;10.486;2023-09-30T01:26:27;16.00;99.90
38458;DHT22;24239;48.058;10.486;2023-09-30T01:29:13;16.00;99.90
38458;DHT22;24239;48.058;10.486;2023-09-30T01:31:59;15.90;99.90
38458;DHT22;24239;48.058;10.486;2023-09-30T01:34:44;15.90;99.90
38458;DHT22;24239;48.058;10.486;2023-09-30T01:37:30;15.90;99.90
38458;DHT22;24239;48.058;10.486;2023-09-30T01:40:16;15.80;99.90
38458;DHT22;24239;48.058;10.486;2023-09-30T01:43:04;15.80;99.90
38458;DHT22;24239;48.058;10.486;2023-09-30T01:45:50;15.90;99.90
38458;DHT22;24239;48.058;10.486;2023-09-30T01:48:36;15.90;99.90
38458;DHT22;24239;48.058;10.486;2023-09-30T01:51:22;15.90;99.90
38458;DHT22;24239;48.058;10.486;2023-09-30T01:54:09;15.90;99.90
38458;DHT22;24239;48.058;10.486;2023-09-30T01:56:56;16.00;99.90
38458;DHT22;24239;48.058;10.486;2023-09-30T01:59:42;15.80;99.90
38458;DHT22;24239;48.058;10.486;2023-09-30T02:02:28;15.90;99.90
38458;DHT22;24239;48.058;10.486;2023-09-30T02:05:14;15.90;99.90
38458;DHT22;24239;48.058;10.486;2023-09-30T02:08:00;15.90;99.90
38458;DHT22;24239;48.058;10.486;2023-09-30T02:10:51;15.90;99.90
38458;DHT22;24239;48.058;10.486;2023-09-30T02:13:37;15.90;99.90
38458;DHT22;24239;48.058;10.486;2023-09-30T02:16:23;15.80;99.90
38458;DHT22;24239;48.058;10.486;2023-09-30T02:19:10;15.80;99.90
38458;DHT22;24239;48.058;10.486;2023-09-30T02:21:56;15.70;99.90
38458;DHT22;24239;48.058;10.486;2023-09-30T02:24:42;15.70;99.90
38458;DHT22;24239;48.058;10.486;2023-09-30T02:27:28;15.70;99.90
38458;DHT22;24239;48.058;10.486;2023-09-30T02:30:14;15.80;99.90
38458;DHT22;24239;48.058;10.486;2023-09-30T02:33:02;15.80;99.90
38458;DHT22;24239;48.058;10.486;2023-09-30T02:35:49;15.70;99.90
38458;DHT22;24239;48.058;10.486;2023-09-30T02:38:36;15.70;99.90
38458;DHT22;24239;48.058;10.486;2023-09-30T02:41:25;15.70;99.90
38458;DHT22;24239;48.058;10.486;2023-09-30T02:44:11;15.60;99.90
38458;DHT22;24239;48.058;10.486;2023-09-30T02:46:56;15.60;99.90
38458;DHT22;24239;48.058;10.486;2023-09-30T02:49:42;15.60;99.90
38458;DHT22;24239;48.058;10.486;2023-09-30T02:52:29;15.60;99.90
38458;DHT22;24239;48.058;10.486;2023-09-30T02:55:15;15.60;99.90
38458;DHT22;24239;48.058;10.486;2023-09-30T02:58:01;15.50;99.90
38458;DHT22;24239;48.058;10.486;2023-09-30T03:00:49;15.60;99.90
38458;DHT22;24239;48.058;10.486;2023-09-30T03:03:35;15.50;99.90
38458;DHT22;24239;48.058;10.486;2023-09-30T03:06:21;15.40;99.90
38458;DHT22;24239;48.058;10.486;2023-09-30T03:09:07;15.40;99.90
38458;DHT22;24239;48.058;10.486;2023-09-30T03:11:55;15.30;99.90
38458;DHT22;24239;48.058;10.486;2023-09-30T03:14:45;15.20;99.90
38458;DHT22;24239;48.058;10.486;2023-09-30T03:17:31;15.20;99.90
38458;DHT22;24239;48.058;10.486;2023-09-30T03:20:17;15.10;99.90
38458;DHT22;24239;48.058;10.486;2023-09-30T03:23:05;15.00;99.90
38458;DHT22;24239;48.058;10.486;2023-09-30T03:25:51;15.00;99.90
38458;DHT22;24239;48.058;10.486;2023-09-30T03:28:38;15.00;99.90
38458;DHT22;24239;48.058;10.486;2023-09-30T03:31:24;15.00;99.90
38458;DHT22;24239;48.058;10.486;2023-09-30T03:34:10;15.00;99.90
38458;DHT22;24239;48.058;10.486;2023-09-30T03:36:57;15.10;99.90
38458;DHT22;24239;48.058;10.486;2023-09-30T03:39:46;15.10;99.90
38458;DHT22;24239;48.058;10.486;2023-09-30T03:42:35;15.10;99.90
38458;DHT22;24239;48.058;10.486;2023-09-30T03:45:21;15.10;99.90
38458;DHT22;24239;48.058;10.486;2023-09-30T03:48:07;15.20;99.90
38458;DHT22;24239;48.058;10.486;2023-09-30T03:50:53;15.20;99.90
38458;DHT22;24239;48.058;10.486;2023-09-30T03:53:43;15.20;99.90
38458;DHT22;24239;48.058;10.486;2023-09-30T03:56:30;15.20;99.90
38458;DHT22;24239;48.058;10.486;2023-09-30T03:59:16;15.10;99.90
38458;DHT22;24239;48.058;10.486;2023-09-30T04:02:02;15.20;99.90
38458;DHT22;24239;48.058;10.486;2023-09-30T04:04:48;15.20;99.90
38458;DHT22;24239;48.058;10.486;2023-09-30T04:07:36;15.10;99.90
38458;DHT22;24239;48.058;10.486;2023-09-30T04:10:22;15.00;99.90
38458;DHT22;24239;48.058;10.486;2023-09-30T04:13:08;15.00;99.90
38458;DHT22;24239;48.058;10.486;2023-09-30T04:15:55;15.00;99.90
38458;DHT22;24239;48.058;10.486;2023-09-30T04:18:41;15.00;99.90
38458;DHT22;24239;48.058;10.486;2023-09-30T04:21:27;15.00;99.90
38458;DHT22;24239;48.058;10.486;2023-09-30T04:24:15;14.90;99.90
38458;DHT22;24239;48.058;10.486;2023-09-30T04:27:01;14.90;99.90
38458;DHT22;24239;48.058;10.486;2023-09-30T04:29:50;14.90;99.90
38458;DHT22;24239;48.058;10.486;2023-09-30T04:32:37;14.80;99.90
38458;DHT22;24239;48.058;10.486;2023-09-30T04:35:24;14.70;99.90
38458;DHT22;24239;48.058;10.486;2023-09-30T04:38:12;14.60;99.90
38458;DHT22;24239;48.058;10.486;2023-09-30T04:40:59;14.50;99.90
38458;DHT22;24239;48.058;10.486;2023-09-30T04:43:46;14.50;99.90
38458;DHT22;24239;48.058;10.486;2023-09-30T04:46:32;14.40;99.90
38458;DHT22;24239;48.058;10.486;2023-09-30T04:49:18;14.40;99.90
38458;DHT22;24239;48.058;10.486;2023-09-30T04:52:05;14.40;99.90
38458;DHT22;24239;48.058;10.486;2023-09-30T04:54:53;14.20;99.90
38458;DHT22;24239;48.058;10.486;2023-09-30T04:57:39;14.10;99.90
38458;DHT22;24239;48.058;10.486;2023-09-30T05:00:26;14.00;99.90
38458;DHT22;24239;48.058;10.486;2023-09-30T05:03:13;13.90;99.90
38458;DHT22;24239;48.058;10.486;2023-09-30T05:05:59;13.70;99.90
38458;DHT22;24239;48.058;10.486;2023-09-30T05:08:45;13.70;99.90
38458;DHT22;24239;48.058;10.486;2023-09-30T05:11:31;13.60;99.90
38458;DHT22;24239;48.058;10.486;2023-09-30T05:14:17;13.50;99.90
38458;DHT22;24239;48.058;10.486;2023-09-30T05:17:04;13.40;99.90
38458;DHT22;24239;48.058;10.486;2023-09-30T05:19:50;13.30;99.90
38458;DHT22;24239;48.058;10.486;2023-09-30T05:22:36;13.30;99.90
38458;DHT22;24239;48.058;10.486;2023-09-30T05:25:22;13.30;99.90
38458;DHT22;24239;48.058;10.486;2023-09-30T05:28:12;13.30;99.90
38458;DHT22;24239;48.058;10.486;2023-09-30T05:30:59;13.40;99.90
38458;DHT22;24239;48.058;10.486;2023-09-30T05:33:45;13.50;99.90
38458;DHT22;24239;48.058;10.486;2023-09-30T05:36:31;13.50;99.90
38458;DHT22;24239;48.058;10.486;2023-09-30T05:39:17;13.50;99.90
38458;DHT22;24239;48.058;10.486;2023-09-30T05:42:05;13.60;99.90
38458;DHT22;24239;48.058;10.486;2023-09-30T05:44:52;13.60;99.90
38458;DHT22;24239;48.058;10.486;2023-09-30T05:47:39;13.80;99.90
38458;DHT22;24239;48.058;10.486;2023-09-30T05:50:26;13.70;99.90
38458;DHT22;24239;48.058;10.486;2023-09-30T05:53:12;13.80;99.90
38458;DHT22;24239;48.058;10.486;2023-09-30T05:55:58;13.80;99.90
38458;DHT22;24239;48.058;10.486;2023-09-30T05:58:45;13.90;99.90
38458;DHT22;24239;48.058;10.486;2023-09-30T06:01:31;13.90;99.90
38458;DHT22;24239;48.058;10.486;2023-09-30T06:04:18;14.00;99.90
38458;DHT22;24239;48.058;10.486;2023-09-30T06:07:04;14.10;99.90
38458;DHT22;24239;48.058;10.486;2023-09-30T06:09:50;14.10;99.90
38458;DHT22;24239;48.058;10.486;2023-09-30T06:12:36;14.20;99.90
38458;DHT22;24239;48.058;10.486;2023-09-30T06:15:24;14.30;99.90
38458;DHT22;24239;48.058;10.486;2023-09-30T06:18:14;14.40;99.90
38458;DHT22;24239;48.058;10.486;2023-09-30T06:21:00;14.50;99.90
38458;DHT22;24239;48.058;10.486;2023-09-30T06:23:47;14.60;99.90
38458;DHT22;24239;48.058;10.486;2023-09-30T06:26:34;14.60;99.90
38458;DHT22;24239;48.058;10.486;2023-09-30T06:29:20;14.70;99.90
38458;DHT22;24239;48.058;10.486;2023-09-30T06:32:06;14.80;99.90
38458;DHT22;24239;48.058;10.486;2023-09-30T06:34:53;14.90;99.90
38458;DHT22;24239;48.058;10.486;2023-09-30T06:37:42;15.00;99.90
38458;DHT22;24239;48.058;10.486;2023-09-30T06:40:31;15.20;99.90
38458;DHT22;24239;48.058;10.486;2023-09-30T06:43:17;15.30;99.90
38458;DHT22;24239;48.058;10.486;2023-09-30T06:46:09;15.40;99.90
38458;DHT22;24239;48.058;10.486;2023-09-30T06:48:55;15.40;99.90
38458;DHT22;24239;48.058;10.486;2023-09-30T06:51:41;15.60;99.90
38458;DHT22;24239;48.058;10.486;2023-09-30T06:54:27;15.60;99.90
38458;DHT22;24239;48.058;10.486;2023-09-30T06:57:16;15.60;99.90
38458;DHT22;24239;48.058;10.486;2023-09-30T07:00:07;15.60;99.90
38458;DHT22;24239;48.058;10.486;2023-09-30T07:02:55;15.70;99.90
38458;DHT22;24239;48.058;10.486;2023-09-30T07:05:41;15.80;99.90
38458;DHT22;24239;48.058;10.486;2023-09-30T07:08:28;15.70;99.90
38458;DHT22;24239;48.058;10.486;2023-09-30T07:11:15;15.80;99.90
38458;DHT22;24239;48.058;10.486;2023-09-30T07:14:01;16.00;99.90
38458;DHT22;24239;48.058;10.486;2023-09-30T07:16:47;16.00;99.90
38458;DHT22;24239;48.058;10.486;2023-09-30T07:19:34;16.00;99.90
38458;DHT22;24239;48.058;10.486;2023-09-30T07:22:20;16.10;99.90
38458;DHT22;24239;48.058;10.486;2023-09-30T07:25:07;16.10;99.90
38458;DHT22;24239;48.058;10.486;2023-09-30T07:27:53;16.00;99.90
38458;DHT22;24239;48.058;10.486;2023-09-30T07:30:39;16.00;99.90
38458;DHT22;24239;48.058;10.486;2023-09-30T07:33:25;16.00;99.90
38458;DHT22;24239;48.058;10.486;2023-09-30T07:36:13;15.90;99.90
38458;DHT22;24239;48.058;10.486;2023-09-30T07:39:00;15.90;99.90
38458;DHT22;24239;48.058;10.486;2023-09-30T07:41:46;16.10;99.90
38458;DHT22;24239;48.058;10.486;2023-09-30T07:44:32;16.20;99.90
38458;DHT22;24239;48.058;10.486;2023-09-30T07:47:18;16.20;99.90
38458;DHT22;24239;48.058;10.486;2023-09-30T07:50:05;16.30;99.90
38458;DHT22;24239;48.058;10.486;2023-09-30T07:52:55;16.10;99.90
38458;DHT22;24239;48.058;10.486;2023-09-30T07:55:41;16.10;99.90
38458;DHT22;24239;48.058;10.486;2023-09-30T07:58:31;16.10;99.90
38458;DHT22;24239;48.058;10.486;2023-09-30T08:01:17;16.10;99.90
38458;DHT22;24239;48.058;10.486;2023-09-30T08:04:04;16.10;99.90
38458;DHT22;24239;48.058;10.486;2023-09-30T08:06:50;16.20;99.90
38458;DHT22;24239;48.058;10.486;2023-09-30T08:09:36;16.40;99.90
38458;DHT22;24239;48.058;10.486;2023-09-30T08:12:23;16.50;99.90
38458;DHT22;24239;48.058;10.486;2023-09-30T08:15:09;16.50;99.90
38458;DHT22;24239;48.058;10.486;2023-09-30T08:17:58;16.40;99.90
38458;DHT22;24239;48.058;10.486;2023-09-30T08:20:44;16.50;99.90
38458;DHT22;24239;48.058;10.486;2023-09-30T08:23:31;16.40;99.90
38458;DHT22;24239;48.058;10.486;2023-09-30T08:26:17;16.30;99.90
38458;DHT22;24239;48.058;10.486;2023-09-30T08:29:03;16.10;99.90
38458;DHT22;24239;48.058;10.486;2023-09-30T08:31:49;16.10;99.90
38458;DHT22;24239;48.058;10.486;2023-09-30T08:34:38;16.10;99.90
38458;DHT22;24239;48.058;10.486;2023-09-30T08:37:24;16.10;99.90
38458;DHT22;24239;48.058;10.486;2023-09-30T08:40:11;16.10;99.90
38458;DHT22;24239;48.058;10.486;2023-09-30T08:42:57;16.20;99.90
38458;DHT22;24239;48.058;10.486;2023-09-30T08:45:44;16.40;99.90
38458;DHT22;24239;48.058;10.486;2023-09-30T08:48:33;16.60;99.90
38458;DHT22;24239;48.058;10.486;2023-09-30T08:51:19;16.70;99.90
38458;DHT22;24239;48.058;10.486;2023-09-30T08:54:05;17.00;99.90
38458;DHT22;24239;48.058;10.486;2023-09-30T08:56:52;17.10;99.90
38458;DHT22;24239;48.058;10.486;2023-09-30T08:59:41;17.20;99.90
38458;DHT22;24239;48.058;10.486;2023-09-30T09:02:28;17.20;99.90
38458;DHT22;24239;48.058;10.486;2023-09-30T09:05:15;17.20;99.90
38458;DHT22;24239;48.058;10.486;2023-09-30T09:08:01;17.20;99.90
38458;DHT22;24239;48.058;10.486;2023-09-30T09:11:00;17.10;99.90
38458;DHT22;24239;48.058;10.486;2023-09-30T09:13:52;17.10;99.90
38458;DHT22;24239;48.058;10.486;2023-09-30T09:16:51;17.00;99.90
38458;DHT22;24239;48.058;10.486;2023-09-30T09:19:38;16.80;99.90
38458;DHT22;24239;48.058;10.486;2023-09-30T09:22:24;16.90;99.90
38458;DHT22;24239;48.058;10.486;2023-09-30T09:25:26;16.90;99.90
38458;DHT22;24239;48.058;10.486;2023-09-30T09:28:15;17.00;99.90
38458;DHT22;24239;48.058;10.486;2023-09-30T09:31:01;17.20;99.90
38458;DHT22;24239;48.058;10.486;2023-09-30T09:33:48;17.40;99.90
38458;DHT22;24239;48.058;10.486;2023-09-30T09:36:41;17.50;99.90
38458;DHT22;24239;48.058;10.486;2023-09-30T09:39:31;17.50;99.90
38458;DHT22;24239;48.058;10.486;2023-09-30T09:45:12;17.20;99.90
38458;DHT22;24239;48.058;10.486;2023-09-30T09:47:59;17.10;99.90
38458;DHT22;24239;48.058;10.486;2023-09-30T09:50:45;17.10;99.90
38458;DHT22;24239;48.058;10.486;2023-09-30T09:53:36;17.10;99.90
38458;DHT22;24239;48.058;10.486;2023-09-30T09:56:25;17.00;99.90
38458;DHT22;24239;48.058;10.486;2023-09-30T09:59:12;17.10;99.90
38458;DHT22;24239;48.058;10.486;2023-09-30T10:01:59;17.00;99.90
38458;DHT22;24239;48.058;10.486;2023-09-30T10:04:46;17.20;99.90
38458;DHT22;24239;48.058;10.486;2023-09-30T10:07:55;17.10;99.90
38458;DHT22;24239;48.058;10.486;2023-09-30T10:10:49;17.30;99.90
38458;DHT22;24239;48.058;10.486;2023-09-30T10:13:56;17.70;99.90
38458;DHT22;24239;48.058;10.486;2023-09-30T10:19:28;17.90;99.90
38458;DHT22;24239;48.058;10.486;2023-09-30T10:25:34;18.30;99.90
38458;DHT22;24239;48.058;10.486;2023-09-30T10:31:23;18.40;99.90
38458;DHT22;24239;48.058;10.486;2023-09-30T10:34:17;18.00;99.90
38458;DHT22;24239;48.058;10.486;2023-09-30T10:37:23;17.90;99.90
38458;DHT22;24239;48.058;10.486;2023-09-30T10:40:29;17.80;99.90
38458;DHT22;24239;48.058;10.486;2023-09-30T10:43:35;17.80;99.90
38458;DHT22;24239;48.058;10.486;2023-09-30T10:52:08;17.70;99.90
38458;DHT22;24239;48.058;10.486;2023-09-30T10:55:02;17.70;99.90
38458;DHT22;24239;48.058;10.486;2023-09-30T10:57:50;17.60;99.90
38458;DHT22;24239;48.058;10.486;2023-09-30T11:00:37;17.70;99.90
38458;DHT22;24239;48.058;10.486;2023-09-30T11:03:24;17.80;99.90
38458;DHT22;24239;48.058;10.486;2023-09-30T11:06:12;17.80;99.90
38458;DHT22;24239;48.058;10.486;2023-09-30T11:09:03;18.00;99.90
38458;DHT22;24239;48.058;10.486;2023-09-30T11:11:51;18.10;99.90
38458;DHT22;24239;48.058;10.486;2023-09-30T11:14:38;18.20;99.90
38458;DHT22;24239;48.058;10.486;2023-09-30T11:17:27;18.10;99.90
38458;DHT22;24239;48.058;10.486;2023-09-30T11:20:13;18.20;99.90
38458;DHT22;24239;48.058;10.486;2023-09-30T11:22:59;18.30;99.90
38458;DHT22;24239;48.058;10.486;2023-09-30T11:25:45;18.40;99.90
38458;DHT22;24239;48.058;10.486;2023-09-30T11:28:41;18.20;99.90
38458;DHT22;24239;48.058;10.486;2023-09-30T11:31:28;18.00;99.90
38458;DHT22;24239;48.058;10.486;2023-09-30T11:34:19;17.80;99.90
38458;DHT22;24239;48.058;10.486;2023-09-30T11:37:05;17.90;99.90
38458;DHT22;24239;48.058;10.486;2023-09-30T11:39:51;18.00;99.90
38458;DHT22;24239;48.058;10.486;2023-09-30T11:42:38;18.20;99.90
38458;DHT22;24239;48.058;10.486;2023-09-30T11:45:24;18.50;99.90
38458;DHT22;24239;48.058;10.486;2023-09-30T11:48:18;18.50;99.90
38458;DHT22;24239;48.058;10.486;2023-09-30T11:51:05;18.40;99.90
38458;DHT22;24239;48.058;10.486;2023-09-30T11:53:51;18.30;99.90
38458;DHT22;24239;48.058;10.486;2023-09-30T11:56:39;18.30;99.90
38458;DHT22;24239;48.058;10.486;2023-09-30T11:59:25;18.50;99.90
38458;DHT22;24239;48.058;10.486;2023-09-30T12:02:15;18.60;99.90
38458;DHT22;24239;48.058;10.486;2023-09-30T12:05:03;18.60;99.90
38458;DHT22;24239;48.058;10.486;2023-09-30T12:07:49;18.70;99.90
38458;DHT22;24239;48.058;10.486;2023-09-30T12:10:35;18.70;99.90
38458;DHT22;24239;48.058;10.486;2023-09-30T12:13:21;18.70;99.90
38458;DHT22;24239;48.058;10.486;2023-09-30T12:16:07;18.80;99.90
38458;DHT22;24239;48.058;10.486;2023-09-30T12:18:53;18.70;99.90
38458;DHT22;24239;48.058;10.486;2023-09-30T12:21:39;18.70;99.90
38458;DHT22;24239;48.058;10.486;2023-09-30T12:24:26;18.60;99.90
38458;DHT22;24239;48.058;10.486;2023-09-30T12:27:12;18.70;99.90
38458;DHT22;24239;48.058;10.486;2023-09-30T12:29:58;18.80;99.90
38458;DHT22;24239;48.058;10.486;2023-09-30T12:32:45;18.80;99.90
38458;DHT22;24239;48.058;10.486;2023-09-30T12:35:32;18.70;99.90
38458;DHT22;24239;48.058;10.486;2023-09-30T12:38:18;18.70;99.90
38458;DHT22;24239;48.058;10.486;2023-09-30T12:41:03;18.80;99.90
38458;DHT22;24239;48.058;10.486;2023-09-30T12:43:49;18.70;99.90
38458;DHT22;24239;48.058;10.486;2023-09-30T12:46:36;18.70;99.90
38458;DHT22;24239;48.058;10.486;2023-09-30T12:49:25;18.80;99.90
38458;DHT22;24239;48.058;10.486;2023-09-30T12:52:11;18.80;99.90
38458;DHT22;24239;48.058;10.486;2023-09-30T12:54:57;18.90;99.90
38458;DHT22;24239;48.058;10.486;2023-09-30T12:57:43;18.90;99.90
38458;DHT22;24239;48.058;10.486;2023-09-30T13:00:31;19.10;99.90
38458;DHT22;24239;48.058;10.486;2023-09-30T13:03:18;19.00;99.90
38458;DHT22;24239;48.058;10.486;2023-09-30T13:06:05;19.00;99.90
38458;DHT22;24239;48.058;10.486;2023-09-30T13:08:51;18.90;99.90
38458;DHT22;24239;48.058;10.486;2023-09-30T13:11:37;19.00;99.90
38458;DHT22;24239;48.058;10.486;2023-09-30T13:14:23;19.10;99.90
38458;DHT22;24239;48.058;10.486;2023-09-30T13:17:09;19.00;99.90
38458;DHT22;24239;48.058;10.486;2023-09-30T13:19:58;19.10;99.90
38458;DHT22;24239;48.058;10.486;2023-09-30T13:22:44;19.10;99.90
38458;DHT22;24239;48.058;10.486;2023-09-30T13:25:31;19.20;99.90
38458;DHT22;24239;48.058;10.486;2023-09-30T13:28:17;19.20;99.90
38458;DHT22;24239;48.058;10.486;2023-09-30T13:31:03;19.30;99.90
38458;DHT22;24239;48.058;10.486;2023-09-30T13:33:49;19.20;99.90
38458;DHT22;24239;48.058;10.486;2023-09-30T13:36:35;19.20;99.90
38458;DHT22;24239;48.058;10.486;2023-09-30T13:39:21;19.10;99.90
38458;DHT22;24239;48.058;10.486;2023-09-30T13:42:07;19.20;99.90
38458;DHT22;24239;48.058;10.486;2023-09-30T13:44:53;19.20;99.90
38458;DHT22;24239;48.058;10.486;2023-09-30T13:47:39;19.10;99.90
38458;DHT22;24239;48.058;10.486;2023-09-30T13:50:25;19.20;99.90
38458;DHT22;24239;48.058;10.486;2023-09-30T13:53:11;19.20;99.90
38458;DHT22;24239;48.058;10.486;2023-09-30T13:55:57;19.20;99.90
38458;DHT22;24239;48.058;10.486;2023-09-30T13:58:43;19.10;99.90
38458;DHT22;24239;48.058;10.486;2023-09-30T14:01:29;19.20;99.90
38458;DHT22;24239;48.058;10.486;2023-09-30T14:04:15;19.10;99.90
38458;DHT22;24239;48.058;10.486;2023-09-30T14:07:02;19.10;99.90
38458;DHT22;24239;48.058;10.486;2023-09-30T14:09:48;19.10;99.90
38458;DHT22;24239;48.058;10.486;2023-09-30T14:12:34;19.20;99.90
38458;DHT22;24239;48.058;10.486;2023-09-30T14:15:20;19.20;99.90
38458;DHT22;24239;48.058;10.486;2023-09-30T14:18:06;19.10;99.90
38458;DHT22;24239;48.058;10.486;2023-09-30T14:20:52;19.10;99.90
38458;DHT22;24239;48.058;10.486;2023-09-30T14:23:38;19.10;99.90
38458;DHT22;24239;48.058;10.486;2023-09-30T14:26:25;19.20;99.90
38458;DHT22;24239;48.058;10.486;2023-09-30T14:29:14;19.20;99.90
38458;DHT22;24239;48.058;10.486;2023-09-30T14:32:00;19.10;99.90
38458;DHT22;24239;48.058;10.486;2023-09-30T14:34:47;19.20;99.90
38458;DHT22;24239;48.058;10.486;2023-09-30T14:37:33;19.30;99.90
38458;DHT22;24239;48.058;10.486;2023-09-30T14:40:19;19.30;99.90
38458;DHT22;24239;48.058;10.486;2023-09-30T14:43:09;19.30;99.90
38458;DHT22;24239;48.058;10.486;2023-09-30T14:45:55;19.30;99.90
38458;DHT22;24239;48.058;10.486;2023-09-30T14:48:41;19.20;99.90
38458;DHT22;24239;48.058;10.486;2023-09-30T14:51:31;19.20;99.90
38458;DHT22;24239;48.058;10.486;2023-09-30T14:54:17;19.10;99.90
38458;DHT22;24239;48.058;10.486;2023-09-30T14:57:03;19.10;99.90
38458;DHT22;24239;48.058;10.486;2023-09-30T14:59:49;19.10;99.90
38458;DHT22;24239;48.058;10.486;2023-09-30T15:02:37;19.10;99.90
38458;DHT22;24239;48.058;10.486;2023-09-30T15:05:25;19.10;99.90
38458;DHT22;24239;48.058;10.486;2023-09-30T15:08:11;19.20;99.90
38458;DHT22;24239;48.058;10.486;2023-09-30T15:11:01;19.20;99.90
38458;DHT22;24239;48.058;10.486;2023-09-30T15:13:47;19.20;99.90
38458;DHT22;24239;48.058;10.486;2023-09-30T15:16:33;19.20;99.90
38458;DHT22;24239;48.058;10.486;2023-09-30T15:19:20;19.00;99.90
38458;DHT22;24239;48.058;10.486;2023-09-30T15:22:07;18.90;99.90
38458;DHT22;24239;48.058;10.486;2023-09-30T15:24:53;18.80;99.90
38458;DHT22;24239;48.058;10.486;2023-09-30T15:27:39;18.90;99.90
38458;DHT22;24239;48.058;10.486;2023-09-30T15:30:25;18.50;99.90
38458;DHT22;24239;48.058;10.486;2023-09-30T15:33:11;18.50;99.90
38458;DHT22;24239;48.058;10.486;2023-09-30T15:35:57;18.50;99.90
38458;DHT22;24239;48.058;10.486;2023-09-30T15:38:43;18.40;99.90
38458;DHT22;24239;48.058;10.486;2023-09-30T15:41:29;18.50;99.90
38458;DHT22;24239;48.058;10.486;2023-09-30T15:44:15;18.40;99.90
38458;DHT22;24239;48.058;10.486;2023-09-30T15:47:01;18.40;99.90
38458;DHT22;24239;48.058;10.486;2023-09-30T15:49:47;18.40;99.90
38458;DHT22;24239;48.058;10.486;2023-09-30T15:52:33;18.20;99.90
38458;DHT22;24239;48.058;10.486;2023-09-30T15:55:19;18.10;99.90
38458;DHT22;24239;48.058;10.486;2023-09-30T15:58:05;17.90;99.90
38458;DHT22;24239;48.058;10.486;2023-09-30T16:00:52;17.80;99.90
38458;DHT22;24239;48.058;10.486;2023-09-30T16:03:39;17.70;99.90
38458;DHT22;24239;48.058;10.486;2023-09-30T16:06:27;17.60;99.90
38458;DHT22;24239;48.058;10.486;2023-09-30T16:09:13;17.60;99.90
38458;DHT22;24239;48.058;10.486;2023-09-30T16:12:03;17.50;99.90
38458;DHT22;24239;48.058;10.486;2023-09-30T16:14:49;17.40;99.90
38458;DHT22;24239;48.058;10.486;2023-09-30T16:17:35;17.40;99.90
38458;DHT22;24239;48.058;10.486;2023-09-30T16:20:23;17.30;99.90
38458;DHT22;24239;48.058;10.486;2023-09-30T16:23:10;17.20;99.90
38458;DHT22;24239;48.058;10.486;2023-09-30T16:25:56;17.20;99.90
38458;DHT22;24239;48.058;10.486;2023-09-30T16:28:42;17.20;99.90
38458;DHT22;24239;48.058;10.486;2023-09-30T16:31:28;17.10;99.90
38458;DHT22;24239;48.058;10.486;2023-09-30T16:34:14;16.80;99.90
38458;DHT22;24239;48.058;10.486;2023-09-30T16:37:03;16.80;99.90
38458;DHT22;24239;48.058;10.486;2023-09-30T16:39:49;16.70;99.90
38458;DHT22;24239;48.058;10.486;2023-09-30T16:42:35;16.50;99.90
38458;DHT22;24239;48.058;10.486;2023-09-30T16:45:21;16.50;99.90
38458;DHT22;24239;48.058;10.486;2023-09-30T16:48:07;16.20;99.90
38458;DHT22;24239;48.058;10.486;2023-09-30T16:50:55;16.10;99.90
38458;DHT22;24239;48.058;10.486;2023-09-30T16:53:41;16.00;99.90
38458;DHT22;24239;48.058;10.486;2023-09-30T16:56:27;15.80;99.90
38458;DHT22;24239;48.058;10.486;2023-09-30T16:59:13;15.70;99.90
38458;DHT22;24239;48.058;10.486;2023-09-30T17:01:59;15.50;99.90
38458;DHT22;24239;48.058;10.486;2023-09-30T17:04:46;15.40;99.90
38458;DHT22;24239;48.058;10.486;2023-09-30T17:07:31;15.30;99.90
38458;DHT22;24239;48.058;10.486;2023-09-30T17:10:18;15.20;99.90
38458;DHT22;24239;48.058;10.486;2023-09-30T17:13:04;15.10;99.90
38458;DHT22;24239;48.058;10.486;2023-09-30T17:15:50;14.90;99.90
38458;DHT22;24239;48.058;10.486;2023-09-30T17:18:36;14.80;99.90
38458;DHT22;24239;48.058;10.486;2023-09-30T17:21:22;14.70;99.90
38458;DHT22;24239;48.058;10.486;2023-09-30T17:24:08;14.60;99.90
38458;DHT22;24239;48.058;10.486;2023-09-30T17:26:54;14.50;99.90
38458;DHT22;24239;48.058;10.486;2023-09-30T17:29:40;14.50;99.90
38458;DHT22;24239;48.058;10.486;2023-09-30T17:32:26;14.40;99.90
38458;DHT22;24239;48.058;10.486;2023-09-30T17:35:12;14.30;99.90